sensor_id;sensor_type;location;lat;lon;timestamp;temperature;humidity
17815;DHT22;9031;50.974;11.330;2023-11-19T00:01:08;6.40;99.90
17815;DHT22;9031;50.974;11.330;2023-11-19T00:03:34;6.30;99.90
17815;DHT22;9031;50.974;11.330;2023-11-19T00:06:00;6.40;99.90
17815;DHT22;9031;50.974;11.330;2023-11-19T00:08:26;6.40;99.90
17815;DHT22;9031;50.974;11.330;2023-11-19T00:10:52;6.40;99.90
17815;DHT22;9031;50.974;11.330;2023-11-19T00:13:18;6.50;99.90
17815;DHT22;9031;50.974;11.330;2023-11-19T00:15:43;6.60;99.90
17815;DHT22;9031;50.974;11.330;2023-11-19T00:18:10;6.60;99.90
17815;DHT22;9031;50.974;11.330;2023-11-19T00:20:36;6.50;99.90
17815;DHT22;9031;50.974;11.330;2023-11-19T00:23:01;6.50;99.90
17815;DHT22;9031;50.974;11.330;2023-11-19T00:25:27;6.50;99.90
17815;DHT22;9031;50.974;11.330;2023-11-19T00:27:53;6.50;99.90
17815;DHT22;9031;50.974;11.330;2023-11-19T00:30:19;6.60;99.90
17815;DHT22;9031;50.974;11.330;2023-11-19T00:32:44;6.70;99.90
17815;DHT22;9031;50.974;11.330;2023-11-19T00:35:11;6.70;99.90
17815;DHT22;9031;50.974;11.330;2023-11-19T00:37:36;6.70;99.90
17815;DHT22;9031;50.974;11.330;2023-11-19T00:40:02;6.70;99.90
17815;DHT22;9031;50.974;11.330;2023-11-19T00:42:30;6.70;99.90
17815;DHT22;9031;50.974;11.330;2023-11-19T00:44:56;6.70;99.90
17815;DHT22;9031;50.974;11.330;2023-11-19T00:47:22;6.70;99.90
17815;DHT22;9031;50.974;11.330;2023-11-19T00:49:48;6.70;99.90
17815;DHT22;9031;50.974;11.330;2023-11-19T00:52:17;6.70;99.90
17815;DHT22;9031;50.974;11.330;2023-11-19T00:54:43;6.80;99.90
17815;DHT22;9031;50.974;11.330;2023-11-19T00:57:08;6.80;99.90
17815;DHT22;9031;50.974;11.330;2023-11-19T00:59:34;6.80;99.90
17815;DHT22;9031;50.974;11.330;2023-11-19T01:01:59;6.70;99.90
17815;DHT22;9031;50.974;11.330;2023-11-19T01:04:29;6.60;99.90
17815;DHT22;9031;50.974;11.330;2023-11-19T01:06:55;6.70;99.90
17815;DHT22;9031;50.974;11.330;2023-11-19T01:09:20;6.70;99.90
17815;DHT22;9031;50.974;11.330;2023-11-19T01:11:46;6.70;99.90
17815;DHT22;9031;50.974;11.330;2023-11-19T01:14:11;6.70;99.90
17815;DHT22;9031;50.974;11.330;2023-11-19T01:16:37;6.70;99.90
17815;DHT22;9031;50.974;11.330;2023-11-19T01:19:02;6.70;99.90
17815;DHT22;9031;50.974;11.330;2023-11-19T01:21:30;6.70;99.90
17815;DHT22;9031;50.974;11.330;2023-11-19T01:23:57;6.60;99.90
17815;DHT22;9031;50.974;11.330;2023-11-19T01:26:23;6.60;99.90
17815;DHT22;9031;50.974;11.330;2023-11-19T01:28:49;6.70;99.90
17815;DHT22;9031;50.974;11.330;2023-11-19T01:31:17;6.70;99.90
17815;DHT22;9031;50.974;11.330;2023-11-19T01:33:43;6.60;99.90
17815;DHT22;9031;50.974;11.330;2023-11-19T01:36:09;6.60;99.90
17815;DHT22;9031;50.974;11.330;2023-11-19T01:38:35;6.70;99.90
17815;DHT22;9031;50.974;11.330;2023-11-19T01:41:01;6.70;99.90
17815;DHT22;9031;50.974;11.330;2023-11-19T01:45:58;6.70;99.90
17815;DHT22;9031;50.974;11.330;2023-11-19T01:48:24;6.70;99.90
17815;DHT22;9031;50.974;11.330;2023-11-19T01:50:50;6.80;99.90
17815;DHT22;9031;50.974;11.330;2023-11-19T01:53:17;6.80;99.90
17815;DHT22;9031;50.974;11.330;2023-11-19T01:55:43;6.80;99.90
17815;DHT22;9031;50.974;11.330;2023-11-19T01:58:09;6.70;99.90
17815;DHT22;9031;50.974;11.330;2023-11-19T02:00:34;6.60;99.90
17815;DHT22;9031;50.974;11.330;2023-11-19T02:03:00;6.60;99.90
17815;DHT22;9031;50.974;11.330;2023-11-19T02:05:26;6.60;99.90
17815;DHT22;9031;50.974;11.330;2023-11-19T02:07:52;6.60;99.90
17815;DHT22;9031;50.974;11.330;2023-11-19T02:10:17;6.60;99.90
17815;DHT22;9031;50.974;11.330;2023-11-19T02:12:44;6.60;99.90
17815;DHT22;9031;50.974;11.330;2023-11-19T02:15:11;6.70;99.90
17815;DHT22;9031;50.974;11.330;2023-11-19T02:17:37;6.80;99.90
17815;DHT22;9031;50.974;11.330;2023-11-19T02:20:05;6.90;99.90
17815;DHT22;9031;50.974;11.330;2023-11-19T02:22:34;6.90;99.90
17815;DHT22;9031;50.974;11.330;2023-11-19T02:25:04;6.90;99.90
17815;DHT22;9031;50.974;11.330;2023-11-19T02:27:58;6.90;99.90
17815;DHT22;9031;50.974;11.330;2023-11-19T02:30:25;6.90;99.90
17815;DHT22;9031;50.974;11.330;2023-11-19T02:32:55;6.90;99.90
17815;DHT22;9031;50.974;11.330;2023-11-19T02:35:25;6.90;99.90
17815;DHT22;9031;50.974;11.330;2023-11-19T02:37:51;6.90;99.90
17815;DHT22;9031;50.974;11.330;2023-11-19T02:40:16;6.90;99.90
17815;DHT22;9031;50.974;11.330;2023-11-19T02:42:42;6.90;99.90
17815;DHT22;9031;50.974;11.330;2023-11-19T02:45:08;7.00;99.90
17815;DHT22;9031;50.974;11.330;2023-11-19T02:47:42;7.00;99.90
17815;DHT22;9031;50.974;11.330;2023-11-19T02:50:09;7.00;99.90
17815;DHT22;9031;50.974;11.330;2023-11-19T02:52:43;7.00;99.90
17815;DHT22;9031;50.974;11.330;2023-11-19T02:55:10;7.10;99.90
17815;DHT22;9031;50.974;11.330;2023-11-19T02:57:41;7.20;99.90
17815;DHT22;9031;50.974;11.330;2023-11-19T03:00:17;7.10;99.90
17815;DHT22;9031;50.974;11.330;2023-11-19T03:02:44;7.10;99.90
17815;DHT22;9031;50.974;11.330;2023-11-19T03:05:15;7.10;99.90
17815;DHT22;9031;50.974;11.330;2023-11-19T03:07:42;7.20;99.90
17815;DHT22;9031;50.974;11.330;2023-11-19T03:10:12;7.20;99.90
17815;DHT22;9031;50.974;11.330;2023-11-19T03:12:43;7.20;99.90
17815;DHT22;9031;50.974;11.330;2023-11-19T03:15:09;7.20;99.90
17815;DHT22;9031;50.974;11.330;2023-11-19T03:17:36;7.30;99.90
17815;DHT22;9031;50.974;11.330;2023-11-19T03:20:04;7.30;99.90
17815;DHT22;9031;50.974;11.330;2023-11-19T03:22:32;7.20;99.90
17815;DHT22;9031;50.974;11.330;2023-11-19T03:24:59;7.20;99.90
17815;DHT22;9031;50.974;11.330;2023-11-19T03:27:25;7.20;99.90
17815;DHT22;9031;50.974;11.330;2023-11-19T03:29:50;7.30;99.90
17815;DHT22;9031;50.974;11.330;2023-11-19T03:32:16;7.40;99.90
17815;DHT22;9031;50.974;11.330;2023-11-19T03:34:41;7.50;99.90
17815;DHT22;9031;50.974;11.330;2023-11-19T03:37:07;7.50;99.90
17815;DHT22;9031;50.974;11.330;2023-11-19T03:39:32;7.50;99.90
17815;DHT22;9031;50.974;11.330;2023-11-19T03:41:58;7.50;99.90
17815;DHT22;9031;50.974;11.330;2023-11-19T03:44:23;7.60;99.90
17815;DHT22;9031;50.974;11.330;2023-11-19T03:46:51;7.60;99.90
17815;DHT22;9031;50.974;11.330;2023-11-19T03:49:17;7.60;99.90
17815;DHT22;9031;50.974;11.330;2023-11-19T03:51:42;7.60;99.90
17815;DHT22;9031;50.974;11.330;2023-11-19T03:54:08;7.60;99.90
17815;DHT22;9031;50.974;11.330;2023-11-19T03:56:34;7.60;99.90
17815;DHT22;9031;50.974;11.330;2023-11-19T03:58:59;7.60;99.90
17815;DHT22;9031;50.974;11.330;2023-11-19T04:01:25;7.70;99.90
17815;DHT22;9031;50.974;11.330;2023-11-19T04:03:50;7.70;99.90
17815;DHT22;9031;50.974;11.330;2023-11-19T04:06:16;7.70;99.90
17815;DHT22;9031;50.974;11.330;2023-11-19T04:08:41;7.80;99.90
17815;DHT22;9031;50.974;11.330;2023-11-19T04:11:07;7.80;99.90
17815;DHT22;9031;50.974;11.330;2023-11-19T04:13:34;7.80;99.90
17815;DHT22;9031;50.974;11.330;2023-11-19T04:16:00;7.80;99.90
17815;DHT22;9031;50.974;11.330;2023-11-19T04:18:25;7.80;99.90
17815;DHT22;9031;50.974;11.330;2023-11-19T04:20:51;7.80;99.90
17815;DHT22;9031;50.974;11.330;2023-11-19T04:23:17;7.80;99.90
17815;DHT22;9031;50.974;11.330;2023-11-19T04:25:42;7.80;99.90
17815;DHT22;9031;50.974;11.330;2023-11-19T04:28:08;7.90;99.90
17815;DHT22;9031;50.974;11.330;2023-11-19T04:30:33;7.90;99.90
17815;DHT22;9031;50.974;11.330;2023-11-19T04:32:59;7.80;99.90
17815;DHT22;9031;50.974;11.330;2023-11-19T04:35:24;7.90;99.90
17815;DHT22;9031;50.974;11.330;2023-11-19T04:37:51;7.80;99.90
17815;DHT22;9031;50.974;11.330;2023-11-19T04:40:17;7.90;99.90
17815;DHT22;9031;50.974;11.330;2023-11-19T04:42:43;7.90;99.90
17815;DHT22;9031;50.974;11.330;2023-11-19T04:45:09;7.90;99.90
17815;DHT22;9031;50.974;11.330;2023-11-19T04:47:36;7.90;99.90
17815;DHT22;9031;50.974;11.330;2023-11-19T04:50:02;7.90;99.90
17815;DHT22;9031;50.974;11.330;2023-11-19T04:52:28;7.90;99.90
17815;DHT22;9031;50.974;11.330;2023-11-19T04:54:53;7.90;99.90
17815;DHT22;9031;50.974;11.330;2023-11-19T04:57:19;7.90;99.90
17815;DHT22;9031;50.974;11.330;2023-11-19T04:59:44;7.90;99.90
17815;DHT22;9031;50.974;11.330;2023-11-19T05:02:10;8.00;99.90
17815;DHT22;9031;50.974;11.330;2023-11-19T05:04:36;8.00;99.90
17815;DHT22;9031;50.974;11.330;2023-11-19T05:07:03;8.10;99.90
17815;DHT22;9031;50.974;11.330;2023-11-19T05:09:28;8.10;99.90
17815;DHT22;9031;50.974;11.330;2023-11-19T05:11:54;8.10;99.90
17815;DHT22;9031;50.974;11.330;2023-11-19T05:14:19;8.10;99.90
17815;DHT22;9031;50.974;11.330;2023-11-19T05:16:46;8.10;99.90
17815;DHT22;9031;50.974;11.330;2023-11-19T05:19:12;8.10;99.90
17815;DHT22;9031;50.974;11.330;2023-11-19T05:21:37;8.00;99.90
17815;DHT22;9031;50.974;11.330;2023-11-19T05:24:03;8.10;99.90
17815;DHT22;9031;50.974;11.330;2023-11-19T05:26:30;8.20;99.90
17815;DHT22;9031;50.974;11.330;2023-11-19T05:28:56;8.20;99.90
17815;DHT22;9031;50.974;11.330;2023-11-19T05:31:21;8.20;99.90
17815;DHT22;9031;50.974;11.330;2023-11-19T05:33:47;8.20;99.90
17815;DHT22;9031;50.974;11.330;2023-11-19T05:36:13;8.20;99.90
17815;DHT22;9031;50.974;11.330;2023-11-19T05:38:38;8.20;99.90
17815;DHT22;9031;50.974;11.330;2023-11-19T05:41:04;8.20;99.90
17815;DHT22;9031;50.974;11.330;2023-11-19T05:43:30;8.20;99.90
17815;DHT22;9031;50.974;11.330;2023-11-19T05:45:56;8.20;99.90
17815;DHT22;9031;50.974;11.330;2023-11-19T05:48:22;8.10;99.90
17815;DHT22;9031;50.974;11.330;2023-11-19T05:50:48;8.10;99.90
17815;DHT22;9031;50.974;11.330;2023-11-19T05:53:15;8.10;99.90
17815;DHT22;9031;50.974;11.330;2023-11-19T05:55:41;8.10;99.90
17815;DHT22;9031;50.974;11.330;2023-11-19T05:58:14;8.10;99.90
17815;DHT22;9031;50.974;11.330;2023-11-19T06:00:40;8.20;99.90
17815;DHT22;9031;50.974;11.330;2023-11-19T06:03:06;8.30;99.90
17815;DHT22;9031;50.974;11.330;2023-11-19T06:05:32;8.40;99.90
17815;DHT22;9031;50.974;11.330;2023-11-19T06:07:58;8.40;99.90
17815;DHT22;9031;50.974;11.330;2023-11-19T06:10:23;8.50;99.90
17815;DHT22;9031;50.974;11.330;2023-11-19T06:12:58;8.60;99.90
17815;DHT22;9031;50.974;11.330;2023-11-19T06:15:25;8.60;99.90
17815;DHT22;9031;50.974;11.330;2023-11-19T06:17:51;8.60;99.90
17815;DHT22;9031;50.974;11.330;2023-11-19T06:20:17;8.50;99.90
17815;DHT22;9031;50.974;11.330;2023-11-19T06:22:45;8.60;99.90
17815;DHT22;9031;50.974;11.330;2023-11-19T06:25:11;8.60;99.90
17815;DHT22;9031;50.974;11.330;2023-11-19T06:27:36;8.60;99.90
17815;DHT22;9031;50.974;11.330;2023-11-19T06:30:02;8.60;99.90
17815;DHT22;9031;50.974;11.330;2023-11-19T06:32:28;8.60;99.90
17815;DHT22;9031;50.974;11.330;2023-11-19T06:34:54;8.60;99.90
17815;DHT22;9031;50.974;11.330;2023-11-19T06:37:20;8.70;99.90
17815;DHT22;9031;50.974;11.330;2023-11-19T06:39:45;8.70;99.90
17815;DHT22;9031;50.974;11.330;2023-11-19T06:42:11;8.70;99.90
17815;DHT22;9031;50.974;11.330;2023-11-19T06:44:36;8.80;99.90
17815;DHT22;9031;50.974;11.330;2023-11-19T06:47:02;8.80;99.90
17815;DHT22;9031;50.974;11.330;2023-11-19T06:49:28;8.80;99.90
17815;DHT22;9031;50.974;11.330;2023-11-19T06:51:53;8.80;99.90
17815;DHT22;9031;50.974;11.330;2023-11-19T06:54:19;8.70;99.90
17815;DHT22;9031;50.974;11.330;2023-11-19T06:56:44;8.70;99.90
17815;DHT22;9031;50.974;11.330;2023-11-19T06:59:10;8.70;99.90
17815;DHT22;9031;50.974;11.330;2023-11-19T07:01:36;8.80;99.90
17815;DHT22;9031;50.974;11.330;2023-11-19T07:04:02;8.80;99.90
17815;DHT22;9031;50.974;11.330;2023-11-19T07:06:34;8.80;99.90
17815;DHT22;9031;50.974;11.330;2023-11-19T07:09:00;8.80;99.90
17815;DHT22;9031;50.974;11.330;2023-11-19T07:11:43;8.80;99.90
17815;DHT22;9031;50.974;11.330;2023-11-19T07:14:10;8.90;99.90
17815;DHT22;9031;50.974;11.330;2023-11-19T07:16:36;9.00;99.90
17815;DHT22;9031;50.974;11.330;2023-11-19T07:19:05;9.00;99.90
17815;DHT22;9031;50.974;11.330;2023-11-19T07:21:31;9.00;99.90
17815;DHT22;9031;50.974;11.330;2023-11-19T07:23:58;9.00;99.90
17815;DHT22;9031;50.974;11.330;2023-11-19T07:26:24;9.10;99.90
17815;DHT22;9031;50.974;11.330;2023-11-19T07:28:50;9.10;99.90
17815;DHT22;9031;50.974;11.330;2023-11-19T07:31:16;9.20;99.90
17815;DHT22;9031;50.974;11.330;2023-11-19T07:33:42;9.20;99.90
17815;DHT22;9031;50.974;11.330;2023-11-19T07:36:09;9.30;99.90
17815;DHT22;9031;50.974;11.330;2023-11-19T07:38:34;9.40;99.90
17815;DHT22;9031;50.974;11.330;2023-11-19T07:41:00;9.50;99.90
17815;DHT22;9031;50.974;11.330;2023-11-19T07:43:26;9.60;99.90
17815;DHT22;9031;50.974;11.330;2023-11-19T07:45:51;9.70;99.90
17815;DHT22;9031;50.974;11.330;2023-11-19T07:48:17;9.90;99.90
17815;DHT22;9031;50.974;11.330;2023-11-19T07:50:48;9.90;99.90
17815;DHT22;9031;50.974;11.330;2023-11-19T07:53:18;10.00;99.90
17815;DHT22;9031;50.974;11.330;2023-11-19T07:55:44;10.10;99.90
17815;DHT22;9031;50.974;11.330;2023-11-19T07:58:13;10.00;99.90
17815;DHT22;9031;50.974;11.330;2023-11-19T08:00:38;10.10;99.90
17815;DHT22;9031;50.974;11.330;2023-11-19T08:03:05;10.10;99.90
17815;DHT22;9031;50.974;11.330;2023-11-19T08:05:31;10.30;99.90
17815;DHT22;9031;50.974;11.330;2023-11-19T08:07:57;10.70;99.90
17815;DHT22;9031;50.974;11.330;2023-11-19T08:10:23;11.00;99.90
17815;DHT22;9031;50.974;11.330;2023-11-19T08:12:49;11.20;99.90
17815;DHT22;9031;50.974;11.330;2023-11-19T08:15:15;11.30;99.90
17815;DHT22;9031;50.974;11.330;2023-11-19T08:17:41;11.50;99.90
17815;DHT22;9031;50.974;11.330;2023-11-19T08:20:08;11.80;99.90
17815;DHT22;9031;50.974;11.330;2023-11-19T08:22:36;11.90;99.90
17815;DHT22;9031;50.974;11.330;2023-11-19T08:25:06;12.00;99.90
17815;DHT22;9031;50.974;11.330;2023-11-19T08:27:32;12.00;99.90
17815;DHT22;9031;50.974;11.330;2023-11-19T08:29:58;12.10;99.90
17815;DHT22;9031;50.974;11.330;2023-11-19T08:32:24;12.30;99.90
17815;DHT22;9031;50.974;11.330;2023-11-19T08:34:50;12.40;99.90
17815;DHT22;9031;50.974;11.330;2023-11-19T08:37:15;12.20;99.90
17815;DHT22;9031;50.974;11.330;2023-11-19T08:39:43;12.10;99.90
17815;DHT22;9031;50.974;11.330;2023-11-19T08:42:09;12.00;99.90
17815;DHT22;9031;50.974;11.330;2023-11-19T08:44:34;11.90;99.90
17815;DHT22;9031;50.974;11.330;2023-11-19T08:47:00;11.70;99.90
17815;DHT22;9031;50.974;11.330;2023-11-19T08:49:25;11.60;99.90
17815;DHT22;9031;50.974;11.330;2023-11-19T08:51:51;11.70;99.90
17815;DHT22;9031;50.974;11.330;2023-11-19T08:54:16;12.20;99.90
17815;DHT22;9031;50.974;11.330;2023-11-19T08:56:42;12.20;99.90
17815;DHT22;9031;50.974;11.330;2023-11-19T08:59:07;12.60;99.90
17815;DHT22;9031;50.974;11.330;2023-11-19T09:01:34;12.90;99.90
17815;DHT22;9031;50.974;11.330;2023-11-19T09:03:59;12.90;99.90
17815;DHT22;9031;50.974;11.330;2023-11-19T09:06:25;12.80;99.90
17815;DHT22;9031;50.974;11.330;2023-11-19T09:08:50;12.90;99.90
17815;DHT22;9031;50.974;11.330;2023-11-19T09:11:16;13.10;99.90
17815;DHT22;9031;50.974;11.330;2023-11-19T09:13:42;13.20;99.90
17815;DHT22;9031;50.974;11.330;2023-11-19T09:16:07;13.00;99.90
17815;DHT22;9031;50.974;11.330;2023-11-19T09:18:34;13.40;99.90
17815;DHT22;9031;50.974;11.330;2023-11-19T09:21:00;14.30;99.90
17815;DHT22;9031;50.974;11.330;2023-11-19T09:23:26;14.70;99.90
17815;DHT22;9031;50.974;11.330;2023-11-19T09:25:53;15.20;99.90
17815;DHT22;9031;50.974;11.330;2023-11-19T09:28:18;16.10;99.90
17815;DHT22;9031;50.974;11.330;2023-11-19T09:30:44;16.70;99.90
17815;DHT22;9031;50.974;11.330;2023-11-19T09:33:10;16.80;99.90
17815;DHT22;9031;50.974;11.330;2023-11-19T09:35:35;16.80;99.90
17815;DHT22;9031;50.974;11.330;2023-11-19T09:38:01;17.90;99.90
17815;DHT22;9031;50.974;11.330;2023-11-19T09:40:27;17.70;99.90
17815;DHT22;9031;50.974;11.330;2023-11-19T09:42:54;18.40;99.90
17815;DHT22;9031;50.974;11.330;2023-11-19T09:45:21;18.10;99.90
17815;DHT22;9031;50.974;11.330;2023-11-19T09:47:47;17.30;99.90
17815;DHT22;9031;50.974;11.330;2023-11-19T09:50:19;15.20;99.90
17815;DHT22;9031;50.974;11.330;2023-11-19T09:52:45;14.00;99.90
17815;DHT22;9031;50.974;11.330;2023-11-19T09:55:11;13.60;99.90
17815;DHT22;9031;50.974;11.330;2023-11-19T09:57:41;13.40;99.90
17815;DHT22;9031;50.974;11.330;2023-11-19T10:00:10;13.40;99.90
17815;DHT22;9031;50.974;11.330;2023-11-19T10:02:36;13.30;99.90
17815;DHT22;9031;50.974;11.330;2023-11-19T10:05:05;13.30;99.90
17815;DHT22;9031;50.974;11.330;2023-11-19T10:07:35;13.40;99.90
17815;DHT22;9031;50.974;11.330;2023-11-19T10:10:01;13.50;99.90
17815;DHT22;9031;50.974;11.330;2023-11-19T10:12:28;13.40;99.90
17815;DHT22;9031;50.974;11.330;2023-11-19T10:14:56;13.20;99.90
17815;DHT22;9031;50.974;11.330;2023-11-19T10:17:27;13.20;99.90
17815;DHT22;9031;50.974;11.330;2023-11-19T10:19:54;13.20;99.90
17815;DHT22;9031;50.974;11.330;2023-11-19T10:22:20;13.20;99.90
17815;DHT22;9031;50.974;11.330;2023-11-19T10:24:45;13.10;99.90
17815;DHT22;9031;50.974;11.330;2023-11-19T10:27:11;13.10;99.90
17815;DHT22;9031;50.974;11.330;2023-11-19T10:29:37;13.10;99.90
17815;DHT22;9031;50.974;11.330;2023-11-19T10:32:03;13.10;99.90
17815;DHT22;9031;50.974;11.330;2023-11-19T10:34:29;13.20;99.90
17815;DHT22;9031;50.974;11.330;2023-11-19T10:36:55;13.30;99.90
17815;DHT22;9031;50.974;11.330;2023-11-19T10:39:21;13.20;99.90
17815;DHT22;9031;50.974;11.330;2023-11-19T10:41:49;13.00;99.90
17815;DHT22;9031;50.974;11.330;2023-11-19T10:44:33;12.80;99.90
17815;DHT22;9031;50.974;11.330;2023-11-19T10:47:01;12.90;99.90
17815;DHT22;9031;50.974;11.330;2023-11-19T10:49:26;12.90;99.90
17815;DHT22;9031;50.974;11.330;2023-11-19T10:51:53;12.90;99.90
17815;DHT22;9031;50.974;11.330;2023-11-19T10:54:22;13.00;99.90
17815;DHT22;9031;50.974;11.330;2023-11-19T10:56:53;13.10;99.90
17815;DHT22;9031;50.974;11.330;2023-11-19T10:59:21;13.20;99.90
17815;DHT22;9031;50.974;11.330;2023-11-19T11:01:48;13.30;99.90
17815;DHT22;9031;50.974;11.330;2023-11-19T11:04:22;13.30;99.90
17815;DHT22;9031;50.974;11.330;2023-11-19T11:06:48;13.30;99.90
17815;DHT22;9031;50.974;11.330;2023-11-19T11:09:14;13.30;99.90
17815;DHT22;9031;50.974;11.330;2023-11-19T11:11:41;13.30;99.90
17815;DHT22;9031;50.974;11.330;2023-11-19T11:14:12;13.40;99.90
17815;DHT22;9031;50.974;11.330;2023-11-19T11:16:44;13.40;99.90
17815;DHT22;9031;50.974;11.330;2023-11-19T11:19:11;13.40;99.90
17815;DHT22;9031;50.974;11.330;2023-11-19T11:21:40;13.50;99.90
17815;DHT22;9031;50.974;11.330;2023-11-19T11:24:29;13.50;99.90
17815;DHT22;9031;50.974;11.330;2023-11-19T11:27:12;13.50;99.90
17815;DHT22;9031;50.974;11.330;2023-11-19T11:29:55;13.50;99.90
17815;DHT22;9031;50.974;11.330;2023-11-19T11:32:34;13.60;99.90
17815;DHT22;9031;50.974;11.330;2023-11-19T11:37:45;13.60;99.90
17815;DHT22;9031;50.974;11.330;2023-11-19T11:40:17;13.50;99.90
17815;DHT22;9031;50.974;11.330;2023-11-19T11:42:44;13.50;99.90
17815;DHT22;9031;50.974;11.330;2023-11-19T11:45:11;13.60;99.90
17815;DHT22;9031;50.974;11.330;2023-11-19T11:55:37;13.80;99.90
17815;DHT22;9031;50.974;11.330;2023-11-19T11:58:27;13.50;99.90
17815;DHT22;9031;50.974;11.330;2023-11-19T12:00:57;13.40;99.90
17815;DHT22;9031;50.974;11.330;2023-11-19T12:03:23;13.30;99.90
17815;DHT22;9031;50.974;11.330;2023-11-19T12:05:49;13.30;99.90
17815;DHT22;9031;50.974;11.330;2023-11-19T12:08:19;13.30;99.90
17815;DHT22;9031;50.974;11.330;2023-11-19T12:10:52;13.20;99.90
17815;DHT22;9031;50.974;11.330;2023-11-19T12:13:20;13.20;99.90
17815;DHT22;9031;50.974;11.330;2023-11-19T12:18:23;13.10;99.90
17815;DHT22;9031;50.974;11.330;2023-11-19T12:20:49;13.00;99.90
17815;DHT22;9031;50.974;11.330;2023-11-19T12:23:15;13.10;99.90
17815;DHT22;9031;50.974;11.330;2023-11-19T12:25:41;13.20;99.90
17815;DHT22;9031;50.974;11.330;2023-11-19T12:28:12;13.30;99.90
17815;DHT22;9031;50.974;11.330;2023-11-19T12:30:38;13.40;99.90
17815;DHT22;9031;50.974;11.330;2023-11-19T12:33:08;13.40;99.90
17815;DHT22;9031;50.974;11.330;2023-11-19T12:35:42;13.30;99.90
17815;DHT22;9031;50.974;11.330;2023-11-19T12:40:46;13.20;99.90
17815;DHT22;9031;50.974;11.330;2023-11-19T12:43:21;13.20;99.90
17815;DHT22;9031;50.974;11.330;2023-11-19T12:45:47;13.40;99.90
17815;DHT22;9031;50.974;11.330;2023-11-19T12:48:13;13.40;99.90
17815;DHT22;9031;50.974;11.330;2023-11-19T12:50:58;13.50;99.90
17815;DHT22;9031;50.974;11.330;2023-11-19T12:53:26;13.50;99.90
17815;DHT22;9031;50.974;11.330;2023-11-19T12:55:52;13.50;99.90
17815;DHT22;9031;50.974;11.330;2023-11-19T12:58:33;13.60;99.90
17815;DHT22;9031;50.974;11.330;2023-11-19T13:01:09;13.50;99.90
17815;DHT22;9031;50.974;11.330;2023-11-19T13:03:38;13.30;99.90
17815;DHT22;9031;50.974;11.330;2023-11-19T13:08:40;13.10;99.90
17815;DHT22;9031;50.974;11.330;2023-11-19T13:11:06;12.90;99.90
17815;DHT22;9031;50.974;11.330;2023-11-19T13:13:51;12.80;99.90
17815;DHT22;9031;50.974;11.330;2023-11-19T13:16:17;12.70;99.90
17815;DHT22;9031;50.974;11.330;2023-11-19T13:18:42;12.70;99.90
17815;DHT22;9031;50.974;11.330;2023-11-19T13:21:08;12.80;99.90
17815;DHT22;9031;50.974;11.330;2023-11-19T13:23:33;12.90;99.90
17815;DHT22;9031;50.974;11.330;2023-11-19T13:25:59;13.00;99.90
17815;DHT22;9031;50.974;11.330;2023-11-19T13:28:24;13.10;99.90
17815;DHT22;9031;50.974;11.330;2023-11-19T13:30:51;13.20;99.90
17815;DHT22;9031;50.974;11.330;2023-11-19T13:33:18;13.30;99.90
17815;DHT22;9031;50.974;11.330;2023-11-19T13:35:44;13.50;99.90
17815;DHT22;9031;50.974;11.330;2023-11-19T13:38:09;13.60;99.90
17815;DHT22;9031;50.974;11.330;2023-11-19T13:40:35;13.70;99.90
17815;DHT22;9031;50.974;11.330;2023-11-19T13:43:01;13.40;99.90
17815;DHT22;9031;50.974;11.330;2023-11-19T13:45:26;13.20;99.90
17815;DHT22;9031;50.974;11.330;2023-11-19T13:47:52;13.00;99.90
17815;DHT22;9031;50.974;11.330;2023-11-19T13:50:17;12.90;99.90
17815;DHT22;9031;50.974;11.330;2023-11-19T13:52:44;12.80;99.90
17815;DHT22;9031;50.974;11.330;2023-11-19T13:55:12;12.80;99.90
17815;DHT22;9031;50.974;11.330;2023-11-19T13:57:38;12.90;99.90
17815;DHT22;9031;50.974;11.330;2023-11-19T14:00:06;12.90;99.90
17815;DHT22;9031;50.974;11.330;2023-11-19T14:02:35;12.80;99.90
17815;DHT22;9031;50.974;11.330;2023-11-19T14:05:01;12.60;99.90
17815;DHT22;9031;50.974;11.330;2023-11-19T14:07:27;12.50;99.90
17815;DHT22;9031;50.974;11.330;2023-11-19T14:09:53;12.60;99.90
17815;DHT22;9031;50.974;11.330;2023-11-19T14:12:19;12.60;99.90
17815;DHT22;9031;50.974;11.330;2023-11-19T14:14:45;12.60;99.90
17815;DHT22;9031;50.974;11.330;2023-11-19T14:17:11;12.50;99.90
17815;DHT22;9031;50.974;11.330;2023-11-19T14:19:37;12.40;99.90
17815;DHT22;9031;50.974;11.330;2023-11-19T14:22:03;12.30;99.90
17815;DHT22;9031;50.974;11.330;2023-11-19T14:24:29;12.50;99.90
17815;DHT22;9031;50.974;11.330;2023-11-19T14:26:54;12.70;99.90
17815;DHT22;9031;50.974;11.330;2023-11-19T14:29:23;12.90;99.90
17815;DHT22;9031;50.974;11.330;2023-11-19T14:31:48;13.00;99.90
17815;DHT22;9031;50.974;11.330;2023-11-19T14:34:14;12.90;99.90
17815;DHT22;9031;50.974;11.330;2023-11-19T14:36:39;12.80;99.90
17815;DHT22;9031;50.974;11.330;2023-11-19T14:39:05;12.70;99.90
17815;DHT22;9031;50.974;11.330;2023-11-19T14:41:32;12.50;99.90
17815;DHT22;9031;50.974;11.330;2023-11-19T14:43:58;12.30;99.90
17815;DHT22;9031;50.974;11.330;2023-11-19T14:46:23;12.10;99.90
17815;DHT22;9031;50.974;11.330;2023-11-19T14:48:49;11.90;99.90
17815;DHT22;9031;50.974;11.330;2023-11-19T14:51:14;11.80;99.90
17815;DHT22;9031;50.974;11.330;2023-11-19T14:53:40;11.80;99.90
17815;DHT22;9031;50.974;11.330;2023-11-19T14:56:05;11.70;99.90
17815;DHT22;9031;50.974;11.330;2023-11-19T14:58:35;11.70;99.90
17815;DHT22;9031;50.974;11.330;2023-11-19T15:01:00;11.70;99.90
17815;DHT22;9031;50.974;11.330;2023-11-19T15:03:29;11.80;99.90
17815;DHT22;9031;50.974;11.330;2023-11-19T15:05:56;11.80;99.90
17815;DHT22;9031;50.974;11.330;2023-11-19T15:08:21;11.80;99.90
17815;DHT22;9031;50.974;11.330;2023-11-19T15:10:47;11.80;99.90
17815;DHT22;9031;50.974;11.330;2023-11-19T15:13:13;11.80;99.90
17815;DHT22;9031;50.974;11.330;2023-11-19T15:15:38;11.80;99.90
17815;DHT22;9031;50.974;11.330;2023-11-19T15:18:04;11.80;99.90
17815;DHT22;9031;50.974;11.330;2023-11-19T15:20:30;11.70;99.90
17815;DHT22;9031;50.974;11.330;2023-11-19T15:22:57;11.50;99.90
17815;DHT22;9031;50.974;11.330;2023-11-19T15:25:23;11.40;99.90
17815;DHT22;9031;50.974;11.330;2023-11-19T15:27:49;11.40;99.90
17815;DHT22;9031;50.974;11.330;2023-11-19T15:30:15;11.30;99.90
17815;DHT22;9031;50.974;11.330;2023-11-19T15:32:41;11.20;99.90
17815;DHT22;9031;50.974;11.330;2023-11-19T15:35:08;11.20;99.90
17815;DHT22;9031;50.974;11.330;2023-11-19T15:37:34;11.10;99.90
17815;DHT22;9031;50.974;11.330;2023-11-19T15:40:00;11.10;99.90
17815;DHT22;9031;50.974;11.330;2023-11-19T15:42:25;11.10;99.90
17815;DHT22;9031;50.974;11.330;2023-11-19T15:44:51;11.10;99.90
17815;DHT22;9031;50.974;11.330;2023-11-19T15:47:16;11.00;99.90
17815;DHT22;9031;50.974;11.330;2023-11-19T15:49:42;10.90;99.90
17815;DHT22;9031;50.974;11.330;2023-11-19T15:52:08;11.00;99.90
17815;DHT22;9031;50.974;11.330;2023-11-19T15:54:34;11.00;99.90
17815;DHT22;9031;50.974;11.330;2023-11-19T15:57:00;11.00;99.90